createdAt,value
2023-03-29T00:02:30.658Z,73.61
2023-03-29T00:05:02.222Z,73.71
2023-03-29T00:07:33.546Z,73.70
2023-03-29T00:10:02.716Z,73.67
2023-03-29T00:12:29.840Z,73.66
2023-03-29T00:14:57.195Z,73.79
2023-03-29T00:17:24.364Z,73.59
2023-03-29T00:19:51.582Z,73.66
2023-03-29T00:22:18.812Z,73.92
2023-03-29T00:24:47.999Z,73.80
2023-03-29T00:27:16.721Z,73.59
2023-03-29T00:29:44.049Z,73.95
2023-03-29T00:32:11.635Z,73.74
2023-03-29T00:34:38.807Z,73.69
2023-03-29T00:37:08.969Z,73.48
2023-03-29T00:39:37.204Z,73.91
2023-03-29T00:42:04.397Z,73.60
2023-03-29T00:44:55.602Z,73.84
2023-03-29T00:47:36.213Z,73.69
2023-03-29T00:50:22.759Z,73.85
2023-03-29T00:53:15.784Z,73.55
2023-03-29T00:55:59.977Z,73.76
2023-03-29T00:58:46.796Z,73.48
2023-03-29T01:01:26.137Z,73.37
2023-03-29T01:04:10.035Z,73.65
2023-03-29T01:06:39.489Z,73.35
2023-03-29T01:09:09.854Z,73.39
2023-03-29T01:11:47.868Z,73.92
2023-03-29T01:14:34.657Z,73.62
2023-03-29T01:17:01.835Z,73.45
2023-03-29T01:19:34.821Z,73.67
2023-03-29T01:22:38.887Z,73.51
2023-03-29T01:25:19.702Z,73.47
2023-03-29T01:28:15.217Z,73.55
2023-03-29T01:31:08.625Z,73.53
2023-03-29T01:33:43.010Z,73.30
2023-03-29T01:36:27.317Z,73.31
2023-03-29T01:38:59.222Z,73.46
2023-03-29T01:41:44.189Z,73.60
2023-03-29T01:44:43.994Z,73.40
2023-03-29T01:47:33.120Z,73.48
2023-03-29T01:50:20.488Z,73.26
2023-03-29T01:53:20.952Z,73.52
2023-03-29T01:55:56.130Z,73.52
2023-03-29T01:58:29.722Z,73.37
2023-03-29T02:00:57.433Z,73.45
2023-03-29T02:03:26.834Z,73.23
2023-03-29T02:05:55.495Z,73.33
2023-03-29T02:08:23.693Z,73.32
2023-03-29T02:10:51.995Z,73.26
2023-03-29T02:13:20.218Z,73.15
2023-03-29T02:15:48.285Z,73.41
2023-03-29T02:18:17.897Z,73.47
2023-03-29T02:20:48.647Z,73.40
2023-03-29T02:23:45.590Z,73.41
2023-03-29T02:26:15.324Z,73.21
2023-03-29T02:28:43.674Z,73.44
2023-03-29T02:31:19.218Z,73.22
2023-03-29T02:34:11.769Z,73.19
2023-03-29T02:36:52.258Z,73.35
2023-03-29T02:39:19.801Z,73.34
2023-03-29T02:41:50.157Z,73.42
2023-03-29T02:44:24.549Z,73.52
2023-03-29T02:46:56.829Z,73.33
2023-03-29T02:49:24.375Z,73.54
2023-03-29T02:51:57.742Z,73.39
2023-03-29T02:54:31.779Z,73.58
2023-03-29T02:57:01.884Z,73.53
2023-03-29T02:59:30.275Z,73.58
2023-03-29T03:01:57.402Z,73.46
2023-03-29T03:04:25.678Z,73.48
2023-03-29T03:06:52.884Z,73.34
2023-03-29T03:09:20.049Z,73.51
2023-03-29T03:11:47.199Z,73.68
2023-03-29T03:14:14.918Z,73.81
2023-03-29T03:16:42.645Z,73.73
2023-03-29T03:19:10.577Z,73.87
2023-03-29T03:21:37.978Z,73.83
2023-03-29T03:24:07.785Z,73.94
2023-03-29T03:26:36.121Z,74.14
2023-03-29T03:29:03.223Z,74.02
2023-03-29T03:31:30.895Z,74.12
2023-03-29T03:33:58.190Z,74.15
2023-03-29T03:36:26.261Z,74.47
2023-03-29T03:38:53.578Z,74.69
2023-03-29T03:41:20.823Z,74.58
2023-03-29T03:43:49.199Z,74.90
2023-03-29T05:03:57.256Z,76.25
2023-03-29T05:06:24.449Z,76.22
2023-03-29T05:08:52.468Z,76.46
2023-03-29T05:11:20.599Z,76.49
2023-03-29T05:13:48.179Z,76.50
2023-03-29T05:16:16.109Z,76.72
2023-03-29T05:18:43.907Z,76.76
2023-03-29T05:21:10.991Z,76.78
2023-03-29T05:23:38.482Z,76.78
2023-03-29T05:26:10.022Z,76.69
2023-03-29T05:28:37.153Z,76.96
2023-03-29T05:31:06.090Z,77.02
2023-03-29T05:33:33.876Z,76.85
2023-03-29T05:36:03.768Z,76.92
2023-03-29T05:38:32.947Z,76.96
2023-03-29T05:41:01.051Z,77.02
2023-03-29T05:43:28.628Z,77.34
2023-03-29T05:45:56.530Z,76.96
2023-03-29T05:48:24.547Z,77.06
2023-03-29T05:50:53.920Z,77.31
2023-03-29T05:53:23.941Z,77.38
2023-03-29T05:55:51.727Z,77.33
2023-03-29T05:58:20.781Z,77.41
2023-03-29T06:00:50.025Z,77.32
2023-03-29T06:03:21.739Z,77.30
2023-03-29T06:05:56.538Z,77.23
2023-03-29T06:08:23.677Z,77.33
2023-03-29T06:10:52.068Z,77.48
2023-03-29T06:13:19.346Z,77.07
2023-03-29T06:15:47.023Z,77.18
2023-03-29T06:18:14.460Z,77.28
2023-03-29T06:20:41.720Z,77.15
2023-03-29T06:23:08.896Z,77.09
2023-03-29T06:25:36.037Z,77.22
2023-03-29T06:28:03.128Z,77.13
2023-03-29T06:30:30.252Z,77.15
2023-03-29T06:33:01.143Z,77.27
2023-03-29T06:35:28.410Z,77.00
2023-03-29T06:37:57.234Z,77.11
2023-03-29T06:40:25.054Z,76.96
2023-03-29T06:42:57.987Z,77.14
2023-03-29T06:45:28.814Z,76.88
2023-03-29T06:47:56.813Z,76.89
2023-03-29T06:50:24.376Z,76.88
2023-03-29T06:52:51.790Z,76.97
2023-03-29T06:55:19.169Z,76.87
2023-03-29T06:57:48.594Z,76.76
2023-03-29T07:00:28.254Z,76.68
2023-03-29T07:02:58.210Z,76.67
2023-03-29T07:05:28.482Z,76.70
2023-03-29T07:08:11.557Z,76.84
2023-03-29T07:10:42.874Z,76.57
2023-03-29T07:13:14.743Z,76.36
2023-03-29T07:15:43.249Z,76.56
2023-03-29T07:18:11.115Z,76.68
2023-03-29T07:20:42.692Z,76.63
2023-03-29T07:23:11.850Z,76.40
2023-03-29T07:25:39.506Z,76.44
2023-03-29T07:28:07.026Z,76.32
2023-03-29T07:30:34.160Z,76.38
2023-03-29T07:33:01.350Z,76.44
2023-03-29T07:35:29.347Z,76.36
2023-03-29T07:37:56.679Z,76.04
2023-03-29T07:40:24.354Z,75.97
2023-03-29T07:42:56.973Z,76.02
2023-03-29T07:45:27.672Z,75.97
2023-03-29T07:47:58.071Z,76.04
2023-03-29T07:50:25.934Z,75.87
2023-03-29T07:52:53.448Z,75.89
2023-03-29T07:55:20.881Z,75.75
2023-03-29T07:57:49.940Z,75.85
2023-03-29T08:00:20.848Z,76.00
2023-03-29T08:02:50.943Z,76.00
2023-03-29T08:05:29.251Z,76.00
2023-03-29T08:08:06.741Z,75.70
2023-03-29T08:10:36.842Z,76.02
2023-03-29T08:13:09.332Z,75.93
2023-03-29T08:15:39.254Z,75.79
2023-03-29T08:18:08.062Z,75.79
2023-03-29T08:20:35.269Z,75.68
2023-03-29T08:23:02.605Z,76.21
2023-03-29T08:25:29.838Z,76.03
2023-03-29T08:27:57.338Z,75.82
2023-03-29T08:30:24.754Z,75.83
2023-03-29T08:32:55.134Z,75.78
2023-03-29T08:35:22.451Z,75.84
2023-03-29T08:37:49.736Z,75.93
2023-03-29T08:40:33.208Z,75.99
2023-03-29T08:43:47.249Z,75.87
2023-03-29T08:46:35.359Z,75.90
2023-03-29T08:49:04.855Z,75.79
2023-03-29T08:51:53.188Z,76.05
2023-03-29T08:54:31.084Z,75.98
2023-03-29T08:57:07.736Z,76.06
2023-03-29T08:59:35.095Z,75.72
2023-03-29T09:02:04.510Z,75.94
2023-03-29T09:04:36.698Z,75.96
2023-03-29T09:07:09.123Z,76.03
2023-03-29T09:09:36.842Z,76.24
2023-03-29T09:12:20.896Z,76.25
2023-03-29T09:15:06.841Z,76.10
2023-03-29T09:18:13.333Z,76.46
2023-03-29T09:20:52.571Z,76.25
2023-03-29T09:23:43.994Z,76.13
2023-03-29T09:26:29.670Z,76.33
2023-03-29T09:29:37.869Z,76.30
2023-03-29T09:32:26.777Z,76.44
2023-03-29T09:35:20.169Z,76.73
2023-03-29T09:37:49.547Z,76.52
2023-03-29T09:40:49.399Z,76.62
2023-03-29T09:43:33.173Z,76.74
2023-03-29T09:46:05.042Z,76.53
2023-03-29T09:48:38.022Z,76.61
2023-03-29T09:51:06.468Z,76.50
2023-03-29T09:53:33.856Z,76.57
2023-03-29T09:56:01.586Z,76.62
2023-03-29T09:58:33.139Z,76.48
2023-03-29T10:01:04.670Z,76.43
2023-03-29T10:03:33.890Z,76.61
2023-03-29T10:06:02.884Z,76.41
2023-03-29T10:08:50.733Z,76.38
2023-03-29T10:11:33.178Z,76.54
2023-03-29T10:14:14.240Z,76.00
2023-03-29T10:16:48.142Z,76.41
2023-03-29T10:19:28.766Z,76.21
2023-03-29T10:22:00.512Z,76.16
2023-03-29T10:24:27.600Z,76.44
2023-03-29T10:27:01.406Z,76.15
2023-03-29T10:29:40.298Z,76.17
2023-03-29T10:32:32.675Z,76.10
2023-03-29T10:35:09.666Z,75.89
2023-03-29T10:37:44.418Z,75.74
2023-03-29T10:40:48.964Z,75.66
2023-03-29T10:43:26.749Z,75.69
2023-03-29T10:46:08.283Z,75.61
2023-03-29T10:48:36.520Z,75.40
2023-03-29T10:51:06.186Z,75.30
2023-03-29T10:53:37.794Z,75.38
2023-03-29T10:56:29.675Z,75.13
2023-03-29T10:59:05.815Z,75.15
2023-03-29T11:02:15.876Z,74.93
2023-03-29T11:05:46.824Z,75.12
2023-03-29T11:08:54.829Z,74.72
2023-03-29T11:11:48.627Z,74.75
2023-03-29T11:14:57.120Z,74.66
2023-03-29T11:18:01.159Z,74.64
2023-03-29T11:20:39.274Z,74.12
2023-03-29T11:23:27.934Z,74.21
2023-03-29T11:26:18.526Z,73.83
2023-03-29T11:29:19.690Z,73.65
2023-03-29T11:32:23.610Z,73.59
2023-03-29T11:35:09.362Z,73.42
2023-03-29T11:37:48.791Z,73.38
2023-03-29T11:40:44.663Z,73.19
2023-03-29T11:43:37.321Z,72.80
2023-03-29T11:46:08.962Z,72.94
2023-03-29T11:48:40.891Z,73.00
2023-03-29T11:51:30.962Z,73.12
2023-03-29T11:54:14.319Z,73.25
2023-03-29T11:56:50.155Z,72.88
2023-03-29T11:59:52.332Z,73.26
2023-03-29T12:02:45.219Z,73.20
2023-03-29T12:05:23.594Z,72.96
2023-03-29T12:08:16.924Z,73.04
2023-03-29T12:11:14.100Z,72.91
2023-03-29T12:13:50.252Z,72.98
2023-03-29T12:17:08.758Z,73.12
2023-03-29T12:20:06.165Z,73.10
2023-03-29T12:22:33.927Z,73.19
2023-03-29T12:25:02.685Z,73.14
2023-03-29T12:28:23.936Z,73.43
2023-03-29T12:31:15.223Z,73.28
2023-03-29T12:34:01.575Z,72.94
2023-03-29T12:37:02.476Z,73.03
2023-03-29T12:39:31.221Z,72.96
2023-03-29T12:42:21.185Z,73.16
2023-03-29T12:45:02.478Z,73.07
2023-03-29T12:47:42.815Z,73.42
2023-03-29T12:50:29.074Z,73.12
2023-03-29T12:53:15.461Z,72.95
2023-03-29T12:55:42.701Z,73.03
2023-03-29T12:58:41.661Z,73.32
2023-03-29T13:01:35.803Z,73.18
2023-03-29T13:04:16.042Z,73.17
2023-03-29T13:06:50.987Z,73.00
2023-03-29T13:09:36.858Z,73.50
2023-03-29T13:12:15.975Z,73.00
2023-03-29T13:14:49.397Z,73.14
2023-03-29T13:17:48.902Z,72.81
2023-03-29T13:20:40.546Z,73.05
2023-03-29T13:23:27.249Z,73.43
2023-03-29T13:26:27.294Z,73.43
2023-03-29T13:29:22.630Z,73.14
2023-03-29T13:32:20.900Z,73.22
2023-03-29T13:35:30.323Z,73.17
2023-03-29T13:38:31.557Z,73.57
2023-03-29T13:41:28.932Z,73.38
2023-03-29T13:43:56.925Z,73.57
2023-03-29T13:46:43.111Z,73.33
2023-03-29T13:49:24.032Z,73.50
2023-03-29T13:51:53.984Z,73.42
2023-03-29T13:54:42.080Z,73.51
2023-03-29T13:57:21.111Z,73.83
2023-03-29T14:00:07.330Z,73.83
2023-03-29T14:02:49.671Z,74.11
2023-03-29T14:05:21.825Z,74.01
2023-03-29T14:07:53.139Z,74.09
2023-03-29T14:10:39.685Z,74.04
2023-03-29T14:13:07.385Z,74.30
2023-03-29T14:15:48.751Z,74.21
2023-03-29T14:18:19.790Z,74.36
2023-03-29T14:20:49.432Z,74.32
2023-03-29T14:23:24.498Z,74.44
2023-03-29T14:25:51.785Z,74.40
2023-03-29T14:28:28.102Z,74.33
2023-03-29T14:30:56.372Z,74.52
2023-03-29T14:33:34.604Z,74.68
2023-03-29T14:36:04.470Z,74.56
2023-03-29T14:38:32.361Z,74.72
2023-03-29T14:41:00.623Z,74.72
2023-03-29T14:43:30.563Z,74.43
2023-03-29T14:45:58.778Z,74.58
2023-03-29T14:48:26.632Z,74.51
2023-03-29T14:50:53.896Z,74.62
2023-03-29T14:53:23.001Z,74.66
2023-03-29T14:55:53.984Z,74.61
2023-03-29T14:58:27.593Z,74.84
2023-03-29T15:00:54.931Z,74.78
2023-03-29T15:03:29.464Z,75.03
2023-03-29T15:06:02.789Z,75.18
2023-03-29T15:08:38.801Z,75.09
2023-03-29T15:11:30.919Z,75.14
2023-03-29T15:14:14.015Z,75.19
2023-03-29T15:16:44.186Z,75.46
2023-03-29T15:19:20.486Z,75.17
2023-03-29T15:21:51.529Z,75.52
2023-03-29T15:24:29.416Z,75.57
2023-03-29T15:27:12.655Z,75.32
2023-03-29T15:29:42.993Z,75.54
2023-03-29T15:32:19.417Z,75.72
2023-03-29T15:34:46.734Z,75.75
2023-03-29T15:37:14.231Z,75.60
2023-03-29T15:39:44.339Z,75.88
2023-03-29T15:42:11.808Z,75.96
2023-03-29T15:44:39.636Z,75.88
2023-03-29T15:47:11.045Z,75.76
2023-03-29T15:49:38.270Z,76.06
2023-03-29T15:52:05.963Z,76.03
2023-03-29T15:54:33.958Z,75.92
2023-03-29T15:57:07.900Z,76.28
2023-03-29T15:59:36.667Z,76.10
2023-03-29T16:02:04.870Z,76.14
2023-03-29T16:04:32.021Z,76.47
2023-03-29T16:06:59.268Z,76.66
2023-03-29T16:09:26.364Z,76.57
2023-03-29T16:11:53.494Z,77.18
2023-03-29T16:14:27.404Z,77.15
2023-03-29T16:16:55.732Z,77.02
2023-03-29T16:19:24.569Z,77.10
2023-03-29T16:21:53.062Z,77.09
2023-03-29T16:24:29.903Z,77.17
2023-03-29T16:26:57.301Z,77.24
2023-03-29T16:29:25.487Z,77.00
2023-03-29T16:31:53.329Z,77.16
2023-03-29T16:34:21.905Z,77.31
2023-03-29T16:36:49.708Z,77.20
2023-03-29T16:39:18.467Z,77.39
2023-03-29T16:41:48.529Z,77.34
2023-03-29T16:44:22.474Z,77.09
2023-03-29T16:46:51.696Z,77.07
2023-03-29T16:49:19.271Z,77.17
2023-03-29T16:51:48.115Z,77.17
2023-03-29T16:54:17.942Z,77.08
2023-03-29T16:56:45.387Z,77.13
2023-03-29T16:59:12.799Z,77.33
2023-03-29T17:01:40.980Z,77.47
2023-03-29T17:04:09.137Z,77.64
2023-03-29T17:06:36.461Z,77.87
2023-03-29T17:09:05.243Z,77.80
2023-03-29T17:11:32.764Z,77.98
2023-03-29T17:14:00.340Z,77.74
2023-03-29T17:16:29.315Z,77.88
2023-03-29T17:19:00.636Z,78.16
2023-03-29T17:21:29.406Z,78.07
2023-03-29T17:23:56.749Z,78.22
2023-03-29T17:26:24.030Z,78.21
2023-03-29T17:28:51.114Z,78.33
2023-03-29T17:31:19.805Z,78.28
2023-03-29T17:33:47.854Z,78.36
2023-03-29T17:36:15.061Z,78.45
2023-03-29T17:38:43.276Z,78.49
2023-03-29T17:41:10.385Z,78.39
2023-03-29T17:43:37.489Z,78.39
2023-03-29T17:46:05.026Z,78.42
2023-03-29T17:48:33.075Z,78.44
2023-03-29T17:51:00.333Z,78.57
2023-03-29T17:53:28.065Z,78.81
2023-03-29T17:55:55.193Z,78.60
2023-03-29T17:58:22.372Z,78.71
2023-03-29T18:00:49.656Z,78.55
2023-03-29T18:03:18.472Z,79.10
2023-03-29T18:05:45.839Z,78.77
2023-03-29T18:08:13.934Z,78.74
2023-03-29T18:10:41.349Z,78.97
2023-03-29T18:13:11.472Z,78.84
2023-03-29T18:15:38.590Z,78.83
2023-03-29T18:18:05.770Z,78.81
2023-03-29T18:20:32.943Z,78.96
2023-03-29T18:23:00.061Z,78.65
2023-03-29T18:25:27.236Z,79.05
2023-03-29T18:27:54.291Z,78.93
2023-03-29T18:30:21.598Z,79.33
2023-03-29T18:32:48.836Z,78.97
2023-03-29T18:35:16.186Z,79.37
2023-03-29T18:37:43.986Z,79.27
2023-03-29T18:40:11.457Z,78.95
2023-03-29T18:42:38.556Z,79.44
2023-03-29T18:45:06.357Z,79.27
2023-03-29T18:47:33.804Z,79.13
2023-03-29T18:50:02.599Z,79.44
2023-03-29T18:52:29.701Z,79.36
2023-03-29T18:54:56.869Z,79.45
2023-03-29T18:57:24.042Z,79.39
2023-03-29T18:59:51.240Z,79.63
2023-03-29T19:02:18.540Z,79.34
2023-03-29T19:04:46.517Z,79.69
2023-03-29T19:07:14.080Z,79.52
2023-03-29T19:09:41.878Z,79.69
2023-03-29T19:12:09.407Z,79.75
2023-03-29T19:14:36.662Z,79.80
2023-03-29T19:17:03.816Z,79.50
2023-03-29T19:19:30.935Z,79.85
2023-03-29T19:22:00.414Z,79.81
2023-03-29T19:24:28.241Z,79.91
2023-03-29T19:26:56.654Z,80.00
2023-03-29T19:29:26.105Z,79.64
2023-03-29T19:31:54.758Z,79.89
2023-03-29T19:34:24.043Z,79.87
2023-03-29T19:36:53.642Z,80.30
2023-03-29T19:39:21.255Z,80.09
2023-03-29T19:41:48.620Z,80.04
2023-03-29T19:44:15.771Z,80.11
2023-03-29T19:46:42.962Z,80.05
2023-03-29T19:49:13.913Z,79.90
2023-03-29T19:51:42.638Z,79.81
2023-03-29T19:54:14.649Z,80.00
2023-03-29T19:56:43.072Z,80.16
2023-03-29T19:59:15.004Z,80.04
2023-03-29T20:01:44.204Z,80.05
2023-03-29T20:04:11.955Z,79.95
2023-03-29T20:06:39.203Z,79.88
2023-03-29T20:09:07.242Z,80.04
2023-03-29T20:11:34.366Z,79.75
2023-03-29T20:14:01.490Z,79.79
2023-03-29T20:16:29.942Z,80.00
2023-03-29T20:18:57.116Z,79.94
2023-03-29T20:21:24.187Z,79.91
2023-03-29T20:23:51.602Z,79.77
2023-03-29T20:26:19.011Z,79.78
2023-03-29T20:28:46.567Z,79.94
2023-03-29T20:31:16.703Z,79.57
2023-03-29T20:33:44.672Z,79.67
2023-03-29T20:36:13.400Z,79.80
2023-03-29T20:38:40.740Z,79.75
2023-03-29T20:41:09.528Z,79.91
2023-03-29T20:43:41.343Z,79.72
2023-03-29T20:46:14.812Z,79.60
2023-03-29T20:48:54.257Z,79.81
2023-03-29T20:51:28.246Z,79.62
2023-03-29T20:54:02.920Z,79.80
2023-03-29T20:56:31.952Z,79.83
2023-03-29T20:58:59.488Z,79.80
2023-03-29T21:01:28.144Z,79.99
2023-03-29T21:03:55.509Z,79.70
2023-03-29T21:06:24.420Z,79.72
2023-03-29T21:08:52.698Z,79.92
2023-03-29T21:11:21.107Z,79.80
2023-03-29T21:13:48.874Z,80.00
2023-03-29T21:16:16.076Z,80.19
2023-03-29T21:18:43.998Z,80.06
2023-03-29T21:21:12.355Z,80.24
2023-03-29T21:23:39.689Z,80.22
2023-03-29T21:26:09.869Z,80.39
2023-03-29T21:28:37.866Z,80.21
2023-03-29T21:31:06.903Z,80.37
2023-03-29T21:33:36.013Z,80.38
2023-03-29T21:36:03.330Z,80.48
2023-03-29T21:38:30.817Z,80.73
2023-03-29T21:40:58.375Z,80.68
2023-03-29T21:43:25.622Z,80.80
2023-03-29T21:45:52.835Z,80.84
2023-03-29T21:48:19.961Z,81.18
2023-03-29T21:50:51.191Z,81.46
2023-03-29T21:53:21.557Z,81.80
2023-03-29T21:55:49.626Z,81.91
2023-03-29T21:58:20.982Z,82.26
2023-03-29T22:00:48.901Z,82.28
2023-03-29T22:03:19.366Z,82.20
2023-03-29T22:06:00.641Z,82.36
2023-03-29T22:08:27.970Z,82.39
2023-03-29T22:10:56.784Z,82.59
2023-03-29T22:13:26.356Z,82.78
2023-03-29T22:15:59.188Z,82.48
2023-03-29T22:18:30.260Z,82.58
2023-03-29T22:20:57.870Z,82.88
2023-03-29T22:23:25.027Z,82.71
2023-03-29T22:25:52.229Z,82.78
2023-03-29T22:28:19.428Z,82.62
2023-03-29T22:30:48.241Z,82.66
2023-03-29T22:33:16.042Z,82.59
2023-03-29T22:35:43.168Z,82.41
2023-03-29T22:38:10.444Z,82.37
2023-03-29T22:40:40.958Z,82.63
2023-03-29T22:43:08.122Z,82.33
2023-03-29T22:45:35.219Z,82.37
2023-03-29T22:48:02.406Z,82.21
2023-03-29T22:50:29.539Z,82.16
2023-03-29T22:52:56.652Z,82.03
2023-03-29T22:55:23.714Z,81.84
2023-03-29T22:57:51.090Z,81.69
2023-03-29T23:00:19.399Z,81.60
2023-03-29T23:02:48.303Z,81.41
2023-03-29T23:05:15.706Z,81.40
2023-03-29T23:07:42.906Z,81.19
2023-03-29T23:10:10.852Z,80.92
2023-03-29T23:12:38.204Z,80.50
2023-03-29T23:15:08.179Z,80.65
2023-03-29T23:17:35.573Z,80.41
2023-03-29T23:20:06.262Z,80.22
2023-03-29T23:22:34.413Z,80.20
2023-03-29T23:25:01.544Z,80.19
2023-03-29T23:27:28.646Z,79.96
2023-03-29T23:29:56.488Z,79.88
2023-03-29T23:32:23.643Z,79.47
2023-03-29T23:34:50.715Z,79.43
2023-03-29T23:37:18.550Z,79.13
2023-03-29T23:39:45.874Z,79.00
2023-03-29T23:42:13.026Z,78.84
2023-03-29T23:44:40.179Z,78.59
2023-03-29T23:47:07.413Z,78.45
2023-03-29T23:49:34.570Z,78.38
2023-03-29T23:52:02.742Z,78.46
2023-03-29T23:54:29.917Z,78.13
2023-03-29T23:56:57.114Z,78.11
2023-03-29T23:59:28.976Z,77.83
